Senior Moments — MHQA6 — position and weather

sailwx.info

Track history (hours):
 
Tides and Currents Weather Stations Pressure Air Temp Water Temp Dewpoint Dewpoint Depression Visibility Wind Speed Wind Dir Waves Ship Positions

Senior Moments

Last reported at 2018-Jul-23 05:38 UTC. Time now 2018-Jul-23 15:40 UTC.
Position N 47°15' W 002°21'.

Length 14 m.

Type: Pleasure craft. MMSI: 235025682.

Date/timePositionNaut miles runAvg speedWind from/ knotsBaromVisibWave heightAir tempDewpointWater temp
2018-Jul-23 05:38N 47°15' W 002°21'0 0.0
2018-Jul-23 05:26N 47°15' W 002°21'0 0.0
2018-Jul-23 04:56N 47°15' W 002°21'0 0.0
2018-Jul-23 03:44N 47°15' W 002°21'0 0.0
2018-Jul-23 03:20N 47°15' W 002°21'0 0.0
2018-Jul-23 02:50N 47°15' W 002°21'0 0.0
2018-Jul-23 02:26N 47°15' W 002°21'  
2018-Jul-16 11:16N 47°21' W 002°31'2 7.3
2018-Jul-16 11:00N 47°22' W 002°34'3 7.0
2018-Jul-16 10:30N 47°23' W 002°38'4 7.6
2018-Jul-16 09:59N 47°25' W 002°43'4 7.3
2018-Jul-16 09:30N 47°27' W 002°48'3 7.0
2018-Jul-16 09:01N 47°29' W 002°52'4 7.2
2018-Jul-16 08:30N 47°32' W 002°55'3 5.8
2018-Jul-16 07:59N 47°35' W 002°53'3 5.6
2018-Jul-16 07:30N 47°37' W 002°50'3 4.8
2018-Jul-16 06:57N 47°38' W 002°46'2 3.0
2018-Jul-16 06:26N 47°39' W 002°45'0 0.0
2018-Jul-16 05:56N 47°39' W 002°45'0 0.0
2018-Jul-16 05:26N 47°39' W 002°45'0 0.0
2018-Jul-16 04:59N 47°39' W 002°45'0 0.0
2018-Jul-16 04:26N 47°39' W 002°45'0 0.0
2018-Jul-16 03:56N 47°39' W 002°45'0 0.0
2018-Jul-16 03:20N 47°39' W 002°45'0 0.0
2018-Jul-16 02:53N 47°39' W 002°45'0 0.0
2018-Jul-16 02:26N 47°39' W 002°45'0 0.0
2018-Jul-16 01:59N 47°39' W 002°45'0 0.0
2018-Jul-16 01:26N 47°39' W 002°45'0 0.0
2018-Jul-16 00:59N 47°39' W 002°45'0 0.0
2018-Jul-16 00:29N 47°39' W 002°45'0 0.0
2018-Jul-15 23:56N 47°39' W 002°45'0 0.0
2018-Jul-15 23:26N 47°39' W 002°45'0 0.0
2018-Jul-15 22:59N 47°39' W 002°45'0 0.0
2018-Jul-15 22:29N 47°39' W 002°45'0 0.0
2018-Jul-15 21:59N 47°39' W 002°45'0 0.0
2018-Jul-15 21:26N 47°39' W 002°45'0 0.0
2018-Jul-15 20:59N 47°39' W 002°45'0 0.0
2018-Jul-15 20:26N 47°39' W 002°45'0 0.0
2018-Jul-15 19:56N 47°39' W 002°45'0 0.0
2018-Jul-15 19:29N 47°39' W 002°45'0 0.0
2018-Jul-15 18:59N 47°39' W 002°45'0 0.0
2018-Jul-15 18:29N 47°39' W 002°45'0 0.0
2018-Jul-15 17:56N 47°39' W 002°45'0 0.0
2018-Jul-15 17:29N 47°39' W 002°45'0 0.0
2018-Jul-15 16:59N 47°39' W 002°45'0 0.0
2018-Jul-15 16:29N 47°39' W 002°45'0 0.0
2018-Jul-15 15:59N 47°39' W 002°45'0 0.0
2018-Jul-15 15:29N 47°39' W 002°45'0 0.0
2018-Jul-15 14:59N 47°39' W 002°45'0 0.0
2018-Jul-15 14:23N 47°39' W 002°45'0 0.0
2018-Jul-15 13:59N 47°39' W 002°45'0 0.0
2018-Jul-15 13:29N 47°39' W 002°45'0 0.0
2018-Jul-15 12:56N 47°39' W 002°45'0 0.0
2018-Jul-15 12:29N 47°39' W 002°45'0 0.0
2018-Jul-15 11:59N 47°39' W 002°45'0 0.0
2018-Jul-15 11:29N 47°39' W 002°45'0 0.0
2018-Jul-15 10:59N 47°39' W 002°45'0 0.0
2018-Jul-15 10:29N 47°39' W 002°45'0 0.0
2018-Jul-15 09:59N 47°39' W 002°45'0 0.0
2018-Jul-15 09:29N 47°39' W 002°45'0 0.0
2018-Jul-15 08:59N 47°39' W 002°45'0 0.0
2018-Jul-15 08:29N 47°39' W 002°45'0 0.0
2018-Jul-15 07:56N 47°39' W 002°45'0 0.0
2018-Jul-15 07:29N 47°39' W 002°45'0 0.0
2018-Jul-15 06:56N 47°39' W 002°45'0 0.0
2018-Jul-15 06:26N 47°39' W 002°45'0 0.0
2018-Jul-15 05:59N 47°39' W 002°45'0 0.0
2018-Jul-15 05:26N 47°39' W 002°45'0 0.0
2018-Jul-15 04:56N 47°39' W 002°45'0 0.0
2018-Jul-15 04:26N 47°39' W 002°45'0 0.0
2018-Jul-15 03:59N 47°39' W 002°45'0 0.0
2018-Jul-15 03:20N 47°39' W 002°45'0 0.0
2018-Jul-15 02:59N 47°39' W 002°45'0 0.0
2018-Jul-15 02:26N 47°39' W 002°45'0 0.0
2018-Jul-15 01:59N 47°39' W 002°45'0 0.0
2018-Jul-15 01:29N 47°39' W 002°45'0 0.0
2018-Jul-15 00:59N 47°39' W 002°45'0 0.0
2018-Jul-15 00:29N 47°39' W 002°45'0 0.0
2018-Jul-14 23:59N 47°39' W 002°45'0 0.0
2018-Jul-14 23:29N 47°39' W 002°45'0 0.0
2018-Jul-14 22:56N 47°39' W 002°45'0 0.0
2018-Jul-14 22:29N 47°39' W 002°45'0 0.0
2018-Jul-14 21:59N 47°39' W 002°45'0 0.0
2018-Jul-14 21:26N 47°39' W 002°45'0 0.0
2018-Jul-14 20:59N 47°39' W 002°45'0 0.0
2018-Jul-14 20:29N 47°39' W 002°45'0 0.0
2018-Jul-14 19:59N 47°39' W 002°45'0 0.0
2018-Jul-14 19:29N 47°39' W 002°45'0 0.0
2018-Jul-14 18:59N 47°39' W 002°45'0 0.0
2018-Jul-14 18:29N 47°39' W 002°45'0 0.0
2018-Jul-14 17:59N 47°39' W 002°45'0 0.0
2018-Jul-14 17:29N 47°39' W 002°45'0 0.0
2018-Jul-14 16:59N 47°39' W 002°45'0 0.0
2018-Jul-14 16:29N 47°39' W 002°45'0 0.0
2018-Jul-14 15:59N 47°39' W 002°45'0 0.0
2018-Jul-14 15:29N 47°39' W 002°45'0 0.0
2018-Jul-14 14:59N 47°39' W 002°45'0 0.0
2018-Jul-14 14:29N 47°39' W 002°45'0 0.0
2018-Jul-14 13:29N 47°39' W 002°45'0 0.0
2018-Jul-14 12:59N 47°39' W 002°45'0 0.0
2018-Jul-14 12:29N 47°39' W 002°45'0 0.0
2018-Jul-14 11:59N 47°39' W 002°45'0 0.0
2018-Jul-14 11:29N 47°39' W 002°45'0 0.0
2018-Jul-14 10:59N 47°39' W 002°45'0 0.0
2018-Jul-14 10:29N 47°39' W 002°45'0 0.0
2018-Jul-14 09:59N 47°39' W 002°45'0 0.0
2018-Jul-14 09:29N 47°39' W 002°45'0 0.0
2018-Jul-14 08:59N 47°39' W 002°45'0 0.0
2018-Jul-14 08:29N 47°39' W 002°45'0 0.0
2018-Jul-14 07:59N 47°39' W 002°45'0 0.0
2018-Jul-14 07:29N 47°39' W 002°45'0 0.0
2018-Jul-14 06:59N 47°39' W 002°45'0 0.0
2018-Jul-14 06:26N 47°39' W 002°45'0 0.0
2018-Jul-14 05:50N 47°39' W 002°45'0 0.0
2018-Jul-14 05:26N 47°39' W 002°45'0 0.0
2018-Jul-14 04:56N 47°39' W 002°45'0 0.0
2018-Jul-14 04:26N 47°39' W 002°45'0 0.0
2018-Jul-14 03:56N 47°39' W 002°45'0 0.0
2018-Jul-14 03:26N 47°39' W 002°45'0 0.0
2018-Jul-14 02:59N 47°39' W 002°45'0 0.0
2018-Jul-14 02:29N 47°39' W 002°45'0 0.0
2018-Jul-14 01:59N 47°39' W 002°45'0 0.0
2018-Jul-14 01:29N 47°39' W 002°45'0 0.0
2018-Jul-14 00:59N 47°39' W 002°45'0 0.0
2018-Jul-14 00:29N 47°39' W 002°45'0 0.0
2018-Jul-13 23:56N 47°39' W 002°45'0 0.0
2018-Jul-13 23:17N 47°39' W 002°45'0 0.0
2018-Jul-13 22:59N 47°39' W 002°45'0 0.0
2018-Jul-13 22:26N 47°39' W 002°45'0 0.0
2018-Jul-13 21:59N 47°39' W 002°45'0 0.0
2018-Jul-13 21:29N 47°39' W 002°45'0 0.0
2018-Jul-13 20:59N 47°39' W 002°45'0 0.0
2018-Jul-13 20:29N 47°39' W 002°45'0 0.0
2018-Jul-13 19:56N 47°39' W 002°45'0 0.0
2018-Jul-13 19:29N 47°39' W 002°45'0 0.0
2018-Jul-13 18:59N 47°39' W 002°45'0 0.0
2018-Jul-13 18:29N 47°39' W 002°45'0 0.0
2018-Jul-13 17:59N 47°39' W 002°45'0 0.0
2018-Jul-13 17:29N 47°39' W 002°45'0 0.0
2018-Jul-13 16:56N 47°39' W 002°45'0 0.6
2018-Jul-13 16:30N 47°39' W 002°45'0 1.0
2018-Jul-13 16:00N 47°38' W 002°46'0 0.0
2018-Jul-13 15:27N 47°38' W 002°46'0 0.0
2018-Jul-13 15:00N 47°38' W 002°46'3 3.0
2018-Jul-13 14:00N 47°37' W 002°49'3 5.9
2018-Jul-13 13:29N 47°35' W 002°53'3 5.5
2018-Jul-13 13:00N 47°32' W 002°54'1 1.1
2018-Jul-13 12:30N 47°33' W 002°54'0 0.0
2018-Jul-13 11:57N 47°33' W 002°54'0 0.0
2018-Jul-13 11:29N 47°33' W 002°54'0 0.0
2018-Jul-13 10:53N 47°33' W 002°54'0 0.0
2018-Jul-13 10:29N 47°33' W 002°54'0 0.0
2018-Jul-13 09:59N 47°33' W 002°54'0 0.0
2018-Jul-13 09:29N 47°33' W 002°54'0 0.0
2018-Jul-13 08:59N 47°33' W 002°54'0 0.0
2018-Jul-13 08:29N 47°33' W 002°54'0 0.0
2018-Jul-13 07:59N 47°33' W 002°54'0 0.0
2018-Jul-13 07:29N 47°33' W 002°54'0 0.0
2018-Jul-13 06:59N 47°33' W 002°54'0 0.0
2018-Jul-13 06:20N 47°33' W 002°54'0 0.0
2018-Jul-13 05:53N 47°33' W 002°54'  
Track history (hours):
 
Tides and Currents Weather Stations Pressure Air Temp Water Temp Dewpoint Dewpoint Depression Visibility Wind Speed Wind Dir Waves Ship Positions

Senior Moments

Last reported at 2018-Jul-23 05:38 UTC. Time now 2018-Jul-23 15:40 UTC.
Position N 47°15' W 002°21'.

Length 14 m.

Type: Pleasure craft. MMSI: 235025682.

Date/timePositionNaut miles runAvg speedWind from/ knotsBaromVisibWave heightAir tempDewpointWater temp
2018-Jul-23 05:38N 47°15' W 002°21'0 0.0
2018-Jul-23 05:26N 47°15' W 002°21'0 0.0
2018-Jul-23 04:56N 47°15' W 002°21'0 0.0
2018-Jul-23 03:44N 47°15' W 002°21'0 0.0
2018-Jul-23 03:20N 47°15' W 002°21'0 0.0
2018-Jul-23 02:50N 47°15' W 002°21'0 0.0
2018-Jul-23 02:26N 47°15' W 002°21'  
2018-Jul-16 11:16N 47°21' W 002°31'2 7.3
2018-Jul-16 11:00N 47°22' W 002°34'3 7.0
2018-Jul-16 10:30N 47°23' W 002°38'4 7.6
2018-Jul-16 09:59N 47°25' W 002°43'4 7.3
2018-Jul-16 09:30N 47°27' W 002°48'3 7.0
2018-Jul-16 09:01N 47°29' W 002°52'4 7.2
2018-Jul-16 08:30N 47°32' W 002°55'3 5.8
2018-Jul-16 07:59N 47°35' W 002°53'3 5.6
2018-Jul-16 07:30N 47°37' W 002°50'3 4.8
2018-Jul-16 06:57N 47°38' W 002°46'2 3.0
2018-Jul-16 06:26N 47°39' W 002°45'0 0.0
2018-Jul-16 05:56N 47°39' W 002°45'0 0.0
2018-Jul-16 05:26N 47°39' W 002°45'0 0.0
2018-Jul-16 04:59N 47°39' W 002°45'0 0.0
2018-Jul-16 04:26N 47°39' W 002°45'0 0.0
2018-Jul-16 03:56N 47°39' W 002°45'0 0.0
2018-Jul-16 03:20N 47°39' W 002°45'0 0.0
2018-Jul-16 02:53N 47°39' W 002°45'0 0.0
2018-Jul-16 02:26N 47°39' W 002°45'0 0.0
2018-Jul-16 01:59N 47°39' W 002°45'0 0.0
2018-Jul-16 01:26N 47°39' W 002°45'0 0.0
2018-Jul-16 00:59N 47°39' W 002°45'0 0.0
2018-Jul-16 00:29N 47°39' W 002°45'0 0.0
2018-Jul-15 23:56N 47°39' W 002°45'0 0.0
2018-Jul-15 23:26N 47°39' W 002°45'0 0.0
2018-Jul-15 22:59N 47°39' W 002°45'0 0.0
2018-Jul-15 22:29N 47°39' W 002°45'0 0.0
2018-Jul-15 21:59N 47°39' W 002°45'0 0.0
2018-Jul-15 21:26N 47°39' W 002°45'0 0.0
2018-Jul-15 20:59N 47°39' W 002°45'0 0.0
2018-Jul-15 20:26N 47°39' W 002°45'0 0.0
2018-Jul-15 19:56N 47°39' W 002°45'0 0.0
2018-Jul-15 19:29N 47°39' W 002°45'0 0.0
2018-Jul-15 18:59N 47°39' W 002°45'0 0.0
2018-Jul-15 18:29N 47°39' W 002°45'0 0.0
2018-Jul-15 17:56N 47°39' W 002°45'0 0.0
2018-Jul-15 17:29N 47°39' W 002°45'0 0.0
2018-Jul-15 16:59N 47°39' W 002°45'0 0.0
2018-Jul-15 16:29N 47°39' W 002°45'0 0.0
2018-Jul-15 15:59N 47°39' W 002°45'0 0.0
2018-Jul-15 15:29N 47°39' W 002°45'0 0.0
2018-Jul-15 14:59N 47°39' W 002°45'0 0.0
2018-Jul-15 14:23N 47°39' W 002°45'0 0.0
2018-Jul-15 13:59N 47°39' W 002°45'0 0.0
2018-Jul-15 13:29N 47°39' W 002°45'0 0.0
2018-Jul-15 12:56N 47°39' W 002°45'0 0.0
2018-Jul-15 12:29N 47°39' W 002°45'0 0.0
2018-Jul-15 11:59N 47°39' W 002°45'0 0.0
2018-Jul-15 11:29N 47°39' W 002°45'0 0.0
2018-Jul-15 10:59N 47°39' W 002°45'0 0.0
2018-Jul-15 10:29N 47°39' W 002°45'0 0.0
2018-Jul-15 09:59N 47°39' W 002°45'0 0.0
2018-Jul-15 09:29N 47°39' W 002°45'0 0.0
2018-Jul-15 08:59N 47°39' W 002°45'0 0.0
2018-Jul-15 08:29N 47°39' W 002°45'0 0.0
2018-Jul-15 07:56N 47°39' W 002°45'0 0.0
2018-Jul-15 07:29N 47°39' W 002°45'0 0.0
2018-Jul-15 06:56N 47°39' W 002°45'0 0.0
2018-Jul-15 06:26N 47°39' W 002°45'0 0.0
2018-Jul-15 05:59N 47°39' W 002°45'0 0.0
2018-Jul-15 05:26N 47°39' W 002°45'0 0.0
2018-Jul-15 04:56N 47°39' W 002°45'0 0.0
2018-Jul-15 04:26N 47°39' W 002°45'0 0.0
2018-Jul-15 03:59N 47°39' W 002°45'0 0.0
2018-Jul-15 03:20N 47°39' W 002°45'0 0.0
2018-Jul-15 02:59N 47°39' W 002°45'0 0.0
2018-Jul-15 02:26N 47°39' W 002°45'0 0.0
2018-Jul-15 01:59N 47°39' W 002°45'0 0.0
2018-Jul-15 01:29N 47°39' W 002°45'0 0.0
2018-Jul-15 00:59N 47°39' W 002°45'0 0.0
2018-Jul-15 00:29N 47°39' W 002°45'0 0.0
2018-Jul-14 23:59N 47°39' W 002°45'0 0.0
2018-Jul-14 23:29N 47°39' W 002°45'0 0.0
2018-Jul-14 22:56N 47°39' W 002°45'0 0.0
2018-Jul-14 22:29N 47°39' W 002°45'0 0.0
2018-Jul-14 21:59N 47°39' W 002°45'0 0.0
2018-Jul-14 21:26N 47°39' W 002°45'0 0.0
2018-Jul-14 20:59N 47°39' W 002°45'0 0.0
2018-Jul-14 20:29N 47°39' W 002°45'0 0.0
2018-Jul-14 19:59N 47°39' W 002°45'0 0.0
2018-Jul-14 19:29N 47°39' W 002°45'0 0.0
2018-Jul-14 18:59N 47°39' W 002°45'0 0.0
2018-Jul-14 18:29N 47°39' W 002°45'0 0.0
2018-Jul-14 17:59N 47°39' W 002°45'0 0.0
2018-Jul-14 17:29N 47°39' W 002°45'0 0.0
2018-Jul-14 16:59N 47°39' W 002°45'0 0.0
2018-Jul-14 16:29N 47°39' W 002°45'0 0.0
2018-Jul-14 15:59N 47°39' W 002°45'0 0.0
2018-Jul-14 15:29N 47°39' W 002°45'0 0.0
2018-Jul-14 14:59N 47°39' W 002°45'0 0.0
2018-Jul-14 14:29N 47°39' W 002°45'0 0.0
2018-Jul-14 13:29N 47°39' W 002°45'0 0.0
2018-Jul-14 12:59N 47°39' W 002°45'0 0.0
2018-Jul-14 12:29N 47°39' W 002°45'0 0.0
2018-Jul-14 11:59N 47°39' W 002°45'0 0.0
2018-Jul-14 11:29N 47°39' W 002°45'0 0.0
2018-Jul-14 10:59N 47°39' W 002°45'0 0.0
2018-Jul-14 10:29N 47°39' W 002°45'0 0.0
2018-Jul-14 09:59N 47°39' W 002°45'0 0.0
2018-Jul-14 09:29N 47°39' W 002°45'0 0.0
2018-Jul-14 08:59N 47°39' W 002°45'0 0.0
2018-Jul-14 08:29N 47°39' W 002°45'0 0.0
2018-Jul-14 07:59N 47°39' W 002°45'0 0.0
2018-Jul-14 07:29N 47°39' W 002°45'0 0.0
2018-Jul-14 06:59N 47°39' W 002°45'0 0.0
2018-Jul-14 06:26N 47°39' W 002°45'0 0.0
2018-Jul-14 05:50N 47°39' W 002°45'0 0.0
2018-Jul-14 05:26N 47°39' W 002°45'0 0.0
2018-Jul-14 04:56N 47°39' W 002°45'0 0.0
2018-Jul-14 04:26N 47°39' W 002°45'0 0.0
2018-Jul-14 03:56N 47°39' W 002°45'0 0.0
2018-Jul-14 03:26N 47°39' W 002°45'0 0.0
2018-Jul-14 02:59N 47°39' W 002°45'0 0.0
2018-Jul-14 02:29N 47°39' W 002°45'0 0.0
2018-Jul-14 01:59N 47°39' W 002°45'0 0.0
2018-Jul-14 01:29N 47°39' W 002°45'0 0.0
2018-Jul-14 00:59N 47°39' W 002°45'0 0.0
2018-Jul-14 00:29N 47°39' W 002°45'0 0.0
2018-Jul-13 23:56N 47°39' W 002°45'0 0.0
2018-Jul-13 23:17N 47°39' W 002°45'0 0.0
2018-Jul-13 22:59N 47°39' W 002°45'0 0.0
2018-Jul-13 22:26N 47°39' W 002°45'0 0.0
2018-Jul-13 21:59N 47°39' W 002°45'0 0.0
2018-Jul-13 21:29N 47°39' W 002°45'0 0.0
2018-Jul-13 20:59N 47°39' W 002°45'0 0.0
2018-Jul-13 20:29N 47°39' W 002°45'0 0.0
2018-Jul-13 19:56N 47°39' W 002°45'0 0.0
2018-Jul-13 19:29N 47°39' W 002°45'0 0.0
2018-Jul-13 18:59N 47°39' W 002°45'0 0.0
2018-Jul-13 18:29N 47°39' W 002°45'0 0.0
2018-Jul-13 17:59N 47°39' W 002°45'0 0.0
2018-Jul-13 17:29N 47°39' W 002°45'0 0.0
2018-Jul-13 16:56N 47°39' W 002°45'0 0.6
2018-Jul-13 16:30N 47°39' W 002°45'0 1.0
2018-Jul-13 16:00N 47°38' W 002°46'0 0.0
2018-Jul-13 15:27N 47°38' W 002°46'0 0.0
2018-Jul-13 15:00N 47°38' W 002°46'3 3.0
2018-Jul-13 14:00N 47°37' W 002°49'3 5.9
2018-Jul-13 13:29N 47°35' W 002°53'3 5.5
2018-Jul-13 13:00N 47°32' W 002°54'1 1.1
2018-Jul-13 12:30N 47°33' W 002°54'0 0.0
2018-Jul-13 11:57N 47°33' W 002°54'0 0.0
2018-Jul-13 11:29N 47°33' W 002°54'0 0.0
2018-Jul-13 10:53N 47°33' W 002°54'0 0.0
2018-Jul-13 10:29N 47°33' W 002°54'0 0.0
2018-Jul-13 09:59N 47°33' W 002°54'0 0.0
2018-Jul-13 09:29N 47°33' W 002°54'0 0.0
2018-Jul-13 08:59N 47°33' W 002°54'0 0.0
2018-Jul-13 08:29N 47°33' W 002°54'0 0.0
2018-Jul-13 07:59N 47°33' W 002°54'0 0.0
2018-Jul-13 07:29N 47°33' W 002°54'0 0.0
2018-Jul-13 06:59N 47°33' W 002°54'0 0.0
2018-Jul-13 06:20N 47°33' W 002°54'0 0.0
2018-Jul-13 05:53N 47°33' W 002°54'  

Dump ship's entire track history